Time;durP1;ratioP1;P1;durP2;ratioP2;P2;SDS_P1;SDS_P2;PMS_P1;PMS_P2;Temp;Humidity;BMP_temperature;BMP_pressure;BME280_temperature;BME280_humidity;BME280_pressure;Samples;Min_cycle;Max_cycle;Signal;HPM_P1;HPM_P2
2022/03/09 00:01:14;;;;;;;13.17;5.30;;;-0.10;62.80;;;;;;5103538;28;20558;-68
2022/03/09 00:03:40;;;;;;;8.00;4.90;;;-0.10;63.00;;;;;;5068242;28;20040;-68
2022/03/09 00:06:06;;;;;;;9.88;4.90;;;-0.10;63.10;;;;;;5084996;28;20050;-68
2022/03/09 00:08:32;;;;;;;8.38;5.10;;;-0.10;63.00;;;;;;5050465;28;20051;-68
2022/03/09 00:10:58;;;;;;;8.63;5.30;;;-0.20;62.90;;;;;;5085240;28;20040;-68
2022/03/09 00:13:23;;;;;;;7.77;4.90;;;-0.20;62.90;;;;;;5076099;28;20119;-68
2022/03/09 00:15:49;;;;;;;9.07;5.57;;;-0.20;62.80;;;;;;5068996;28;20115;-68
2022/03/09 00:18:15;;;;;;;7.67;4.90;;;-0.20;63.20;;;;;;5068005;28;20485;-68
2022/03/09 00:20:40;;;;;;;7.77;5.20;;;-0.30;63.00;;;;;;5068629;28;20460;-68
2022/03/09 00:23:06;;;;;;;10.63;6.93;;;-0.30;62.80;;;;;;5067586;28;20035;-68
2022/03/09 00:25:32;;;;;;;10.60;5.37;;;-0.30;63.10;;;;;;5102309;28;20048;-68
2022/03/09 00:27:57;;;;;;;7.87;5.00;;;-0.30;63.20;;;;;;5101392;28;20079;-68
2022/03/09 00:30:24;;;;;;;9.70;5.63;;;-0.40;63.20;;;;;;5102387;28;20100;-68
2022/03/09 00:32:49;;;;;;;11.13;5.45;;;-0.40;63.30;;;;;;5079160;28;20050;-68
2022/03/09 00:35:15;;;;;;;9.83;5.70;;;-0.40;63.70;;;;;;5073384;28;20135;-68
2022/03/09 00:37:41;;;;;;;8.50;5.55;;;-0.40;63.40;;;;;;5084768;28;20476;-68
2022/03/09 00:40:08;;;;;;;9.23;5.75;;;-0.50;63.60;;;;;;5065860;28;20070;-68
2022/03/09 00:42:38;;;;;;;10.82;5.90;;;-0.60;63.60;;;;;;5066774;28;20136;-68
2022/03/09 00:45:05;;;;;;;9.60;5.65;;;-0.60;63.50;;;;;;5065249;28;20492;-68
2022/03/09 00:47:31;;;;;;;10.98;5.70;;;-0.60;63.80;;;;;;5077477;28;20067;-68
2022/03/09 00:49:57;;;;;;;8.80;5.93;;;-0.60;63.70;;;;;;5051744;28;20048;-68
2022/03/09 00:52:22;;;;;;;10.87;6.10;;;-0.70;64.10;;;;;;5054763;28;20373;-68
2022/03/09 00:54:49;;;;;;;11.77;5.80;;;-0.70;64.10;;;;;;5053134;28;20035;-68
2022/03/09 00:57:15;;;;;;;9.88;6.40;;;-0.70;63.80;;;;;;5068896;28;20725;-68
2022/03/09 00:59:41;;;;;;;11.45;6.78;;;-0.70;64.00;;;;;;5049474;28;20036;-68
2022/03/09 01:02:07;;;;;;;9.68;6.68;;;-0.70;64.20;;;;;;5067204;28;20053;-68
2022/03/09 01:04:36;;;;;;;10.93;6.45;;;-0.80;64.30;;;;;;5100844;28;20076;-68
2022/03/09 01:07:03;;;;;;;13.07;6.85;;;-0.80;64.30;;;;;;5051173;28;20081;-68
2022/03/09 01:09:29;;;;;;;11.18;6.65;;;-0.80;64.50;;;;;;5049739;28;20047;-68
2022/03/09 01:11:56;;;;;;;10.83;6.37;;;-0.80;64.50;;;;;;5101161;28;20048;-68
2022/03/09 01:14:23;;;;;;;13.02;7.22;;;-0.80;64.60;;;;;;5061568;28;20044;-68
2022/03/09 01:16:49;;;;;;;11.73;6.53;;;-0.80;64.60;;;;;;5067030;28;20036;-68
2022/03/09 01:19:14;;;;;;;13.43;6.87;;;-0.90;64.60;;;;;;5100992;28;20441;-68
2022/03/09 01:21:40;;;;;;;11.60;6.57;;;-0.90;64.80;;;;;;5050988;28;20684;-68
2022/03/09 01:24:06;;;;;;;13.47;7.57;;;-0.90;64.60;;;;;;5067534;28;20464;-68
2022/03/09 01:26:33;;;;;;;11.85;7.65;;;-0.90;64.90;;;;;;5067011;28;20033;-68
2022/03/09 01:28:58;;;;;;;12.63;7.00;;;-0.90;64.70;;;;;;5066025;28;20489;-68
2022/03/09 01:31:24;;;;;;;13.07;7.93;;;-0.90;64.70;;;;;;5067697;28;20101;-68
2022/03/09 01:33:50;;;;;;;12.23;6.97;;;-0.90;64.90;;;;;;5033288;28;20044;-68
2022/03/09 01:36:16;;;;;;;14.03;7.00;;;-1.00;64.80;;;;;;5083727;28;20040;-68
2022/03/09 01:38:41;;;;;;;12.27;6.63;;;-1.00;65.00;;;;;;5065550;28;20045;-68
2022/03/09 01:41:07;;;;;;;13.87;7.00;;;-0.90;65.40;;;;;;5050773;28;20365;-68
2022/03/09 01:43:33;;;;;;;12.40;7.67;;;-0.90;65.00;;;;;;5049112;28;20075;-68
2022/03/09 01:45:58;;;;;;;11.07;6.83;;;-0.90;65.30;;;;;;5096710;27;20039;-68
2022/03/09 01:48:24;;;;;;;13.10;7.90;;;-0.80;64.90;;;;;;5041033;28;20192;-68
2022/03/09 01:50:50;;;;;;;11.27;7.30;;;-0.80;64.60;;;;;;5049418;28;20039;-68
2022/03/09 01:53:18;;;;;;;11.47;6.97;;;-0.80;65.00;;;;;;5033318;28;20071;-68
2022/03/09 01:55:44;;;;;;;14.18;7.70;;;-0.80;64.90;;;;;;5054813;28;20052;-68
2022/03/09 01:58:09;;;;;;;12.77;7.38;;;-0.80;64.70;;;;;;5089522;28;20140;-68
2022/03/09 02:00:35;;;;;;;14.73;7.50;;;-0.80;64.70;;;;;;5089260;28;20123;-68
2022/03/09 02:03:01;;;;;;;10.73;6.93;;;-0.80;64.70;;;;;;5086932;28;20113;-68
2022/03/09 02:05:27;;;;;;;11.88;8.10;;;-0.80;64.70;;;;;;5087268;28;20044;-68
2022/03/09 02:10:51;;;;;;;14.68;8.13;;;-0.80;65.00;;;;;;5042634;28;20090;-68
2022/03/09 02:13:17;;;;;;;13.40;7.80;;;-0.80;64.70;;;;;;5089012;28;20052;-68
2022/03/09 02:15:43;;;;;;;15.70;8.77;;;-0.80;64.50;;;;;;5070024;28;20380;-68
2022/03/09 02:18:09;;;;;;;13.82;8.25;;;-0.80;64.60;;;;;;5095037;28;20118;-68
2022/03/09 02:20:41;;;;;;;12.43;8.10;;;-0.80;64.40;;;;;;5086608;28;20492;-68
2022/03/09 02:23:07;;;;;;;11.93;7.28;;;-0.80;64.30;;;;;;5095702;28;20601;-68
2022/03/09 02:25:32;;;;;;;13.37;7.83;;;-0.80;64.30;;;;;;5056071;28;20065;-68
2022/03/09 02:28:01;;;;;;;15.60;8.33;;;-0.80;64.20;;;;;;5088144;28;20032;-68
2022/03/09 02:30:26;;;;;;;13.95;8.43;;;-0.80;64.10;;;;;;5092181;28;20051;-68
2022/03/09 02:32:52;;;;;;;11.70;7.77;;;-0.90;64.10;;;;;;5068630;28;20036;-68
2022/03/09 02:35:19;;;;;;;12.43;8.27;;;-0.90;64.10;;;;;;5085168;28;20491;-68
2022/03/09 02:37:45;;;;;;;15.45;8.35;;;-1.00;64.00;;;;;;5070853;28;20032;-68
2022/03/09 02:40:12;;;;;;;13.68;8.48;;;-1.00;64.10;;;;;;5063421;28;20451;-68
2022/03/09 02:42:39;;;;;;;13.02;8.27;;;-1.10;64.20;;;;;;5083430;28;20032;-68
2022/03/09 02:45:06;;;;;;;16.10;8.60;;;-1.20;64.40;;;;;;5078833;28;20089;-68
2022/03/09 02:47:32;;;;;;;14.90;8.20;;;-1.20;64.40;;;;;;5071805;28;20036;-68
2022/03/09 02:49:57;;;;;;;14.02;8.63;;;-1.20;64.70;;;;;;5069868;28;20052;-68
2022/03/09 02:52:23;;;;;;;12.70;7.90;;;-1.20;64.60;;;;;;5088359;28;20072;-68
2022/03/09 02:54:49;;;;;;;16.93;8.97;;;-1.30;64.70;;;;;;5069396;28;20496;-68
2022/03/09 02:57:15;;;;;;;15.73;9.57;;;-1.30;64.70;;;;;;5086202;28;20508;-68
2022/03/09 02:59:41;;;;;;;15.43;8.82;;;-1.40;64.60;;;;;;5068995;28;20508;-68
2022/03/09 03:02:06;;;;;;;15.70;9.10;;;-1.40;64.90;;;;;;5103492;28;20076;-68
2022/03/09 03:04:32;;;;;;;15.07;8.63;;;-1.50;64.80;;;;;;5069843;28;20404;-68
2022/03/09 03:06:58;;;;;;;15.30;9.23;;;-1.50;64.80;;;;;;5083937;28;20047;-68
2022/03/09 03:09:24;;;;;;;14.30;8.70;;;-1.60;64.90;;;;;;5068559;28;20047;-68
2022/03/09 03:11:49;;;;;;;13.87;9.03;;;-1.60;65.30;;;;;;5069258;28;20519;-68
2022/03/09 03:14:15;;;;;;;16.33;8.83;;;-1.60;65.40;;;;;;5069364;28;20083;-68
2022/03/09 03:16:41;;;;;;;13.43;8.07;;;-1.60;65.80;;;;;;5086334;28;20032;-68
2022/03/09 03:19:06;;;;;;;14.97;9.20;;;-1.60;65.60;;;;;;5086352;28;20040;-68
2022/03/09 03:21:32;;;;;;;14.30;9.27;;;-1.60;65.80;;;;;;5073011;28;20120;-68
2022/03/09 03:23:58;;;;;;;14.27;8.20;;;-1.60;65.80;;;;;;5068746;28;20081;-68
2022/03/09 03:26:24;;;;;;;14.43;8.43;;;-1.50;65.90;;;;;;5085594;28;20398;-68
2022/03/09 03:28:51;;;;;;;14.88;8.93;;;-1.60;65.60;;;;;;5084395;28;20315;-68
2022/03/09 03:31:19;;;;;;;13.55;8.40;;;-1.60;65.60;;;;;;5068374;28;20062;-68
2022/03/09 03:33:45;;;;;;;20.15;8.98;;;-1.60;65.50;;;;;;5085503;28;20059;-68
2022/03/09 03:36:10;;;;;;;16.35;8.93;;;-1.60;65.70;;;;;;5069305;28;20534;-68
2022/03/09 03:38:36;;;;;;;13.60;8.17;;;-1.70;65.60;;;;;;5102493;28;20044;-68
2022/03/09 03:41:02;;;;;;;14.00;8.57;;;-1.70;65.80;;;;;;5086023;28;20170;-68
2022/03/09 03:43:28;;;;;;;14.07;8.53;;;-1.80;65.80;;;;;;5084922;28;20567;-68
2022/03/09 03:45:53;;;;;;;14.57;8.97;;;-1.80;65.80;;;;;;5099930;28;20052;-68
2022/03/09 03:48:19;;;;;;;17.13;9.33;;;-1.80;65.80;;;;;;5063231;28;20039;-68
2022/03/09 03:50:45;;;;;;;15.80;9.87;;;-1.90;65.80;;;;;;5117585;28;20052;-68
2022/03/09 03:53:11;;;;;;;13.57;8.63;;;-1.90;65.80;;;;;;5067829;28;20063;-68
2022/03/09 03:55:36;;;;;;;14.63;8.73;;;-1.90;65.80;;;;;;5102066;28;20093;-68
2022/03/09 03:58:03;;;;;;;15.93;8.70;;;-2.00;66.10;;;;;;5102157;28;20036;-68
2022/03/09 04:00:28;;;;;;;16.38;9.40;;;-2.00;66.30;;;;;;5085569;28;20036;-68
2022/03/09 04:02:54;;;;;;;15.67;8.67;;;-2.00;66.30;;;;;;5085111;28;20752;-68
2022/03/09 04:05:20;;;;;;;15.20;8.70;;;-2.00;66.40;;;;;;5083486;28;20085;-68
2022/03/09 04:07:46;;;;;;;15.17;8.93;;;-2.00;66.20;;;;;;5082043;28;20082;-68
2022/03/09 04:10:13;;;;;;;15.32;9.30;;;-2.00;66.40;;;;;;5098668;28;20531;-68
2022/03/09 04:12:39;;;;;;;15.40;9.45;;;-1.90;66.70;;;;;;5084407;28;20396;-68
2022/03/09 04:15:05;;;;;;;17.57;8.90;;;-2.00;66.70;;;;;;5101087;28;20047;-68
2022/03/09 04:17:38;;;;;;;15.68;9.43;;;-2.00;66.80;;;;;;5068332;28;20132;-68
2022/03/09 04:20:05;;;;;;;17.55;8.98;;;-2.00;66.60;;;;;;5068080;28;20036;-68
2022/03/09 04:22:31;;;;;;;15.55;9.65;;;-2.00;66.40;;;;;;5068428;28;20055;-68
2022/03/09 04:24:56;;;;;;;16.35;9.45;;;-2.00;66.60;;;;;;5036627;28;20407;-68
2022/03/09 04:27:22;;;;;;;15.20;9.07;;;-2.00;66.60;;;;;;5089391;28;20043;-68
2022/03/09 04:29:48;;;;;;;17.40;9.73;;;-2.00;66.80;;;;;;5088810;28;20506;-68
2022/03/09 04:32:13;;;;;;;14.07;8.97;;;-2.00;66.80;;;;;;5088600;28;20408;-68
2022/03/09 04:34:39;;;;;;;16.43;9.50;;;-2.00;66.80;;;;;;5071468;28;20125;-68
2022/03/09 04:37:06;;;;;;;14.93;8.87;;;-2.00;66.70;;;;;;5068625;28;20609;-68
2022/03/09 04:39:31;;;;;;;16.75;9.68;;;-2.00;66.80;;;;;;5103769;28;20043;-68
2022/03/09 04:41:57;;;;;;;16.67;9.67;;;-2.00;67.00;;;;;;5071382;28;20047;-68
2022/03/09 04:44:23;;;;;;;16.70;9.23;;;-2.00;67.20;;;;;;5088042;28;20362;-68
2022/03/09 04:46:48;;;;;;;21.70;10.30;;;-1.90;66.90;;;;;;5104655;28;20421;-68
2022/03/09 04:49:14;;;;;;;16.07;9.03;;;-1.90;67.10;;;;;;5121901;27;20126;-68
2022/03/09 04:51:39;;;;;;;19.47;9.10;;;-1.90;66.70;;;;;;5104891;28;20044;-68
2022/03/09 04:54:05;;;;;;;18.50;9.90;;;-2.00;66.80;;;;;;5084483;28;20556;-68
2022/03/09 04:56:31;;;;;;;17.00;9.10;;;-1.90;66.90;;;;;;5092918;28;20758;-68
2022/03/09 04:58:56;;;;;;;15.33;9.50;;;-2.00;66.60;;;;;;5050775;28;20045;-68
2022/03/09 05:01:22;;;;;;;16.73;8.93;;;-2.00;66.80;;;;;;5085266;28;20041;-68
2022/03/09 05:03:48;;;;;;;15.77;9.47;;;-2.10;66.90;;;;;;5050823;28;20036;-68
2022/03/09 05:06:14;;;;;;;16.23;9.23;;;-2.10;66.70;;;;;;5058810;28;20047;-68
2022/03/09 05:08:40;;;;;;;18.90;9.93;;;-2.10;66.70;;;;;;5058660;28;20396;-67
2022/03/09 05:11:06;;;;;;;14.65;8.75;;;-2.10;66.70;;;;;;5050493;28;20051;-68
2022/03/09 05:13:32;;;;;;;18.27;9.23;;;-2.10;67.20;;;;;;5051241;28;20067;-68
2022/03/09 05:15:57;;;;;;;12.97;8.53;;;-2.20;67.00;;;;;;5066368;28;20040;-68
2022/03/09 05:18:23;;;;;;;17.17;9.67;;;-2.20;67.10;;;;;;5107051;27;20048;-68
2022/03/09 05:20:49;;;;;;;14.50;8.97;;;-2.20;67.00;;;;;;5072604;28;20037;-68
2022/03/09 05:23:14;;;;;;;16.23;9.50;;;-2.20;66.90;;;;;;5052859;28;20121;-68
2022/03/09 05:25:40;;;;;;;18.80;9.40;;;-2.20;66.90;;;;;;5033806;28;20032;-68
2022/03/09 05:28:06;;;;;;;14.53;9.70;;;-2.20;67.00;;;;;;5047738;28;20506;-68
2022/03/09 05:30:31;;;;;;;16.83;9.93;;;-2.20;67.10;;;;;;5101892;28;20047;-67
2022/03/09 05:32:57;;;;;;;18.03;9.77;;;-2.30;66.90;;;;;;5050559;28;20036;-68
2022/03/09 05:35:24;;;;;;;15.63;8.87;;;-2.20;66.90;;;;;;5067789;28;20051;-68
2022/03/09 05:37:49;;;;;;;18.25;9.77;;;-2.30;66.90;;;;;;5070429;28;20108;-68
2022/03/09 05:40:15;;;;;;;15.30;9.40;;;-2.30;66.80;;;;;;5058353;28;20040;-68
2022/03/09 05:42:43;;;;;;;15.33;9.90;;;-2.30;66.90;;;;;;5066592;28;20119;-68
2022/03/09 05:45:09;;;;;;;17.67;9.75;;;-2.30;67.00;;;;;;5060429;28;20037;-68
2022/03/09 05:47:35;;;;;;;17.48;8.95;;;-2.30;67.50;;;;;;5048807;28;20404;-68
2022/03/09 05:50:01;;;;;;;17.13;9.97;;;-2.30;67.40;;;;;;5069564;28;20055;-68
2022/03/09 05:52:26;;;;;;;16.40;9.77;;;-2.40;67.40;;;;;;5052764;28;20052;-68
2022/03/09 05:54:52;;;;;;;18.83;9.87;;;-2.30;67.40;;;;;;5054757;28;20050;-67
2022/03/09 05:57:22;;;;;;;15.88;9.15;;;-2.30;67.50;;;;;;5067450;28;20413;-68
2022/03/09 05:59:49;;;;;;;14.35;8.93;;;-2.40;67.50;;;;;;5086430;28;20047;-68
2022/03/09 06:02:15;;;;;;;18.08;9.45;;;-2.40;67.40;;;;;;5103765;28;20044;-68
2022/03/09 06:04:42;;;;;;;15.15;9.45;;;-2.40;67.30;;;;;;5085527;28;20491;-68
2022/03/09 06:07:08;;;;;;;15.40;9.27;;;-2.40;67.50;;;;;;5100629;28;20047;-68
2022/03/09 06:09:34;;;;;;;18.17;9.43;;;-2.40;67.50;;;;;;5086691;28;20055;-68
2022/03/09 06:12:00;;;;;;;16.13;8.97;;;-2.40;67.70;;;;;;5084140;28;20116;-68
2022/03/09 06:14:25;;;;;;;16.87;9.17;;;-2.30;67.50;;;;;;5084702;28;20504;-68
2022/03/09 06:16:51;;;;;;;16.83;10.87;;;-2.30;67.60;;;;;;5102951;28;20036;-68
2022/03/09 06:19:17;;;;;;;19.00;9.93;;;-2.30;67.80;;;;;;5086729;28;20097;-68
2022/03/09 06:21:43;;;;;;;15.57;9.45;;;-2.30;67.90;;;;;;5103954;28;20781;-67
2022/03/09 06:24:10;;;;;;;16.53;9.47;;;-2.30;67.80;;;;;;5085962;28;20047;-67
2022/03/09 06:26:36;;;;;;;16.67;9.10;;;-2.30;67.50;;;;;;5085788;28;20071;-68
2022/03/09 06:29:04;;;;;;;15.60;9.55;;;-2.30;67.60;;;;;;5066933;28;20042;-68
2022/03/09 06:31:30;;;;;;;15.77;9.40;;;-2.30;67.60;;;;;;5085985;28;20067;-68
2022/03/09 06:33:55;;;;;;;17.83;10.00;;;-2.30;67.80;;;;;;5101690;28;20105;-68
2022/03/09 06:36:21;;;;;;;16.43;8.97;;;-2.30;68.00;;;;;;5099028;28;20036;-68
2022/03/09 06:38:47;;;;;;;16.80;9.63;;;-2.20;67.60;;;;;;5084289;28;20067;-68
2022/03/09 06:41:12;;;;;;;15.37;9.53;;;-2.20;67.60;;;;;;5068024;28;20040;-68
2022/03/09 06:43:38;;;;;;;15.07;9.63;;;-2.10;67.60;;;;;;5070372;28;20040;-68
2022/03/09 06:46:04;;;;;;;18.83;9.87;;;-2.10;67.70;;;;;;5098843;28;20044;-68
2022/03/09 06:48:30;;;;;;;20.23;10.23;;;-2.10;67.60;;;;;;5099020;28;20093;-68
2022/03/09 06:50:56;;;;;;;17.92;10.35;;;-2.00;67.70;;;;;;5085971;28;20047;-68
2022/03/09 06:53:22;;;;;;;18.20;9.67;;;-2.00;67.60;;;;;;5086522;28;20043;-68
2022/03/09 06:55:47;;;;;;;14.70;9.40;;;-1.90;67.50;;;;;;5090225;28;20040;-68
2022/03/09 06:58:13;;;;;;;15.82;8.95;;;-1.90;67.60;;;;;;5119762;27;20502;-68
2022/03/09 07:00:39;;;;;;;16.97;8.60;;;-1.80;67.50;;;;;;5036269;28;20079;-68
2022/03/09 07:03:05;;;;;;;15.77;8.67;;;-1.70;67.40;;;;;;5069707;28;20044;-68
2022/03/09 07:05:34;;;;;;;16.95;9.60;;;-1.60;67.40;;;;;;5085906;28;20500;-68
2022/03/09 07:08:00;;;;;;;15.27;9.38;;;-1.40;67.20;;;;;;5068603;28;20036;-68
2022/03/09 07:10:26;;;;;;;16.75;9.68;;;-1.30;67.10;;;;;;5120052;27;20044;-68
2022/03/09 07:12:52;;;;;;;16.40;9.20;;;-1.20;66.80;;;;;;5102958;28;20068;-68
2022/03/09 07:15:18;;;;;;;17.73;9.27;;;-1.10;66.70;;;;;;5068588;28;20043;-68
2022/03/09 07:17:46;;;;;;;14.77;9.13;;;-0.90;66.40;;;;;;5068123;28;20431;-68
2022/03/09 07:20:13;;;;;;;14.25;9.40;;;-0.80;66.30;;;;;;5052244;28;20032;-68
2022/03/09 07:22:40;;;;;;;15.20;9.00;;;-0.70;66.00;;;;;;5103301;28;20051;-68
2022/03/09 07:25:06;;;;;;;16.27;8.77;;;-0.60;65.90;;;;;;5082393;28;20101;-68
2022/03/09 07:27:32;;;;;;;14.77;8.88;;;-0.50;66.00;;;;;;5052151;28;20050;-68
2022/03/09 07:29:58;;;;;;;16.13;8.97;;;-0.30;65.80;;;;;;5086214;28;20484;-68
2022/03/09 07:32:23;;;;;;;16.93;9.07;;;-0.20;65.50;;;;;;5069277;28;20040;-68
2022/03/09 07:34:49;;;;;;;14.40;8.60;;;-0.10;65.40;;;;;;5076992;28;20512;-68
2022/03/09 07:37:15;;;;;;;18.00;9.27;;;0.10;64.90;;;;;;5077660;28;20043;-68
2022/03/09 07:39:41;;;;;;;16.75;8.90;;;0.20;65.00;;;;;;5119956;27;20040;-68
2022/03/09 07:42:07;;;;;;;16.40;9.07;;;0.30;64.80;;;;;;5085227;28;20050;-68
2022/03/09 07:44:33;;;;;;;16.87;8.80;;;0.40;64.50;;;;;;5085602;28;20927;-68
2022/03/09 07:46:58;;;;;;;18.10;9.43;;;0.50;64.30;;;;;;5068215;28;20401;-68
2022/03/09 07:49:25;;;;;;;16.13;9.30;;;0.60;64.40;;;;;;5084532;28;20055;-68
2022/03/09 07:51:50;;;;;;;17.10;9.65;;;0.80;63.90;;;;;;5068334;28;20052;-68
2022/03/09 07:54:17;;;;;;;16.03;8.97;;;0.90;63.40;;;;;;5068409;28;20043;-68
2022/03/09 07:56:44;;;;;;;14.32;8.93;;;1.00;63.10;;;;;;5101530;28;20053;-68
2022/03/09 07:59:11;;;;;;;15.13;8.23;;;1.10;63.10;;;;;;5075249;28;20391;-68
2022/03/09 08:01:39;;;;;;;14.85;8.52;;;1.20;63.00;;;;;;5105394;27;20079;-68
2022/03/09 08:04:08;;;;;;;18.77;9.88;;;1.30;62.80;;;;;;5083623;28;20040;-68
2022/03/09 08:06:34;;;;;;;14.80;9.30;;;1.50;62.90;;;;;;5072188;28;20040;-68
2022/03/09 08:09:00;;;;;;;15.27;8.85;;;1.60;62.90;;;;;;5085950;28;20134;-68
2022/03/09 08:11:26;;;;;;;16.07;9.23;;;1.70;63.10;;;;;;5093618;28;20038;-68
2022/03/09 08:13:53;;;;;;;12.85;8.20;;;1.80;62.30;;;;;;5095949;28;20305;-68
2022/03/09 08:16:19;;;;;;;13.52;8.57;;;1.90;62.10;;;;;;5077565;28;20038;-68
2022/03/09 08:18:44;;;;;;;17.20;8.13;;;2.10;61.60;;;;;;5088526;28;20036;-68
2022/03/09 08:21:10;;;;;;;15.77;8.40;;;2.20;61.40;;;;;;5072028;28;20043;-68
2022/03/09 08:23:36;;;;;;;16.00;8.33;;;2.40;60.30;;;;;;5104910;27;20101;-68
2022/03/09 08:26:02;;;;;;;15.87;8.33;;;2.50;60.30;;;;;;5071773;28;20097;-68
2022/03/09 08:28:27;;;;;;;14.10;8.30;;;2.60;60.20;;;;;;5087588;28;20573;-68
2022/03/09 08:30:54;;;;;;;15.73;8.97;;;2.70;60.20;;;;;;5071816;28;20504;-68
2022/03/09 08:33:21;;;;;;;12.65;8.13;;;2.90;59.70;;;;;;5114916;27;20115;-68
2022/03/09 08:35:46;;;;;;;13.27;7.85;;;3.00;59.50;;;;;;5121755;27;20595;-68
2022/03/09 08:38:12;;;;;;;11.97;7.90;;;3.00;59.20;;;;;;5087878;28;20040;-68
2022/03/09 08:40:38;;;;;;;13.77;8.47;;;3.20;59.00;;;;;;5050717;28;20036;-68
2022/03/09 08:43:04;;;;;;;12.37;7.53;;;3.30;59.20;;;;;;5096453;28;20530;-68
2022/03/09 08:45:30;;;;;;;13.98;8.07;;;3.40;58.90;;;;;;5105255;27;20432;-69
2022/03/09 08:47:56;;;;;;;16.33;8.53;;;3.50;58.30;;;;;;5085934;27;20089;-68
2022/03/09 08:50:21;;;;;;;12.57;7.80;;;3.60;58.40;;;;;;5089576;27;20063;-68
2022/03/09 08:52:47;;;;;;;11.47;8.00;;;3.70;58.10;;;;;;5064642;28;20484;-68
2022/03/09 08:55:13;;;;;;;12.98;8.35;;;3.80;57.70;;;;;;5118467;27;20044;-69
2022/03/09 08:57:39;;;;;;;15.20;8.50;;;3.90;58.00;;;;;;5091437;28;20039;-68
2022/03/09 09:00:06;;;;;;;11.87;7.53;;;4.00;57.70;;;;;;5095230;27;20520;-68
2022/03/09 09:02:32;;;;;;;13.00;8.15;;;4.10;57.00;;;;;;5128944;27;20043;-68
2022/03/09 09:04:58;;;;;;;11.70;8.10;;;4.30;55.70;;;;;;5124739;27;20044;-69
2022/03/09 09:07:24;;;;;;;11.70;8.07;;;4.40;55.60;;;;;;5092064;28;20036;-69
2022/03/09 09:09:50;;;;;;;15.23;8.68;;;4.60;55.20;;;;;;5079408;28;20044;-69
2022/03/09 09:12:17;;;;;;;13.07;7.72;;;4.70;55.00;;;;;;5108667;28;20217;-68
2022/03/09 09:14:43;;;;;;;15.90;8.68;;;4.80;54.40;;;;;;5108617;28;20114;-68
2022/03/09 09:17:09;;;;;;;13.80;8.07;;;4.80;54.20;;;;;;5108603;27;20032;-68
2022/03/09 09:19:35;;;;;;;15.35;8.43;;;4.90;54.30;;;;;;5090984;28;20035;-68
2022/03/09 09:22:01;;;;;;;13.60;8.23;;;5.00;54.40;;;;;;5090428;28;20504;-68
2022/03/09 09:24:27;;;;;;;15.85;9.20;;;5.10;54.20;;;;;;5090930;28;20837;-69
2022/03/09 09:26:53;;;;;;;14.65;7.95;;;5.20;54.60;;;;;;5090541;28;20051;-69
2022/03/09 09:29:19;;;;;;;11.02;7.55;;;5.30;54.80;;;;;;5107964;27;20496;-69
2022/03/09 09:31:49;;;;;;;16.17;8.20;;;5.40;53.70;;;;;;5072339;28;20074;-69
2022/03/09 09:34:16;;;;;;;12.13;7.80;;;5.50;53.10;;;;;;5056086;28;20298;-68
2022/03/09 09:36:45;;;;;;;13.60;8.07;;;5.60;52.70;;;;;;5088735;28;20081;-69
2022/03/09 09:39:15;;;;;;;15.02;8.18;;;5.70;52.80;;;;;;5088482;28;20125;-69
2022/03/09 09:41:46;;;;;;;13.23;8.20;;;5.80;53.00;;;;;;5123451;27;20039;-69
2022/03/09 09:44:13;;;;;;;13.38;7.47;;;5.90;53.20;;;;;;5093810;28;20410;-69
2022/03/09 09:46:41;;;;;;;13.02;8.18;;;6.00;52.60;;;;;;5106956;28;20031;-69
2022/03/09 09:49:13;;;;;;;13.88;8.38;;;6.10;52.20;;;;;;5071444;28;20028;-69
2022/03/09 09:51:41;;;;;;;18.65;8.32;;;6.20;52.20;;;;;;5093211;28;20043;-69
2022/03/09 09:54:07;;;;;;;16.52;8.43;;;6.30;52.30;;;;;;5112928;27;20097;-69
2022/03/09 09:56:38;;;;;;;13.75;7.85;;;6.50;52.20;;;;;;5104272;27;20571;-69
2022/03/09 09:59:05;;;;;;;11.73;8.05;;;6.60;51.60;;;;;;5104307;28;20144;-69
2022/03/09 10:01:32;;;;;;;11.30;7.85;;;6.70;50.30;;;;;;5103757;27;20036;-69
2022/03/09 10:03:57;;;;;;;11.07;8.00;;;6.80;50.10;;;;;;5087024;28;20043;-69
2022/03/09 10:06:23;;;;;;;12.30;7.60;;;6.80;49.90;;;;;;5086266;28;20047;-69
2022/03/09 10:09:11;;;;;;;12.65;8.13;;;6.90;49.30;;;;;;5103254;28;20043;-69
2022/03/09 10:11:55;;;;;;;13.20;7.22;;;7.00;49.80;;;;;;5121625;27;20440;-69
2022/03/09 10:14:40;;;;;;;14.00;8.43;;;7.10;49.40;;;;;;5085899;28;20046;-69
2022/03/09 10:17:11;;;;;;;12.57;7.75;;;7.20;48.00;;;;;;5119782;27;20432;-69
2022/03/09 10:19:40;;;;;;;12.48;7.60;;;7.40;48.30;;;;;;5087248;28;20068;-69
2022/03/09 10:22:32;;;;;;;13.73;8.13;;;7.40;47.80;;;;;;5102885;28;20492;-69
2022/03/09 10:25:18;;;;;;;13.48;8.18;;;7.50;47.10;;;;;;5070057;28;20052;-69
2022/03/09 10:27:47;;;;;;;13.15;8.27;;;7.60;47.30;;;;;;5120358;27;20059;-69
2022/03/09 10:30:17;;;;;;;12.45;7.97;;;7.70;47.30;;;;;;5103064;28;20046;-69
2022/03/09 10:32:53;;;;;;;11.60;8.32;;;7.80;47.30;;;;;;5103661;27;20115;-69
2022/03/09 10:35:31;;;;;;;15.38;8.52;;;7.90;47.70;;;;;;5084554;28;20040;-69
2022/03/09 10:38:04;;;;;;;11.40;8.02;;;8.00;47.10;;;;;;5066372;28;20044;-69
2022/03/09 10:40:32;;;;;;;14.38;8.40;;;8.10;47.10;;;;;;5066326;28;20070;-69
2022/03/09 10:43:14;;;;;;;13.52;8.30;;;8.20;47.10;;;;;;5086008;28;20096;-69
2022/03/09 10:46:00;;;;;;;12.98;8.23;;;8.30;46.00;;;;;;5120647;27;20048;-69
2022/03/09 10:48:27;;;;;;;12.20;8.17;;;8.40;45.40;;;;;;5086139;28;20047;-69
2022/03/09 10:50:55;;;;;;;12.85;8.20;;;8.50;46.50;;;;;;5120306;27;20040;-70
2022/03/09 10:53:21;;;;;;;13.63;8.77;;;8.60;45.90;;;;;;5085758;28;20039;-69
2022/03/09 10:55:47;;;;;;;13.53;8.90;;;8.70;45.90;;;;;;5103406;28;20115;-69
2022/03/09 10:58:22;;;;;;;11.15;7.82;;;8.80;45.50;;;;;;5101934;28;20321;-69
2022/03/09 11:00:52;;;;;;;13.55;8.68;;;8.90;45.80;;;;;;5120731;27;20109;-69
2022/03/09 11:03:33;;;;;;;11.85;7.68;;;9.00;44.90;;;;;;5068897;28;20063;-70
2022/03/09 11:06:05;;;;;;;13.05;8.52;;;9.20;43.80;;;;;;5119156;27;20419;-69
2022/03/09 11:08:35;;;;;;;13.48;8.45;;;9.30;43.60;;;;;;5083319;28;20048;-69
2022/03/09 11:11:02;;;;;;;14.15;8.65;;;9.30;43.30;;;;;;5116224;27;20046;-69
2022/03/09 11:13:30;;;;;;;15.15;9.52;;;9.40;43.50;;;;;;5069027;28;20048;-69
2022/03/09 11:15:56;;;;;;;11.55;7.82;;;9.50;42.70;;;;;;5103261;28;20139;-69
2022/03/09 11:18:24;;;;;;;13.83;8.40;;;9.60;42.90;;;;;;5068105;28;20119;-69
2022/03/09 11:20:57;;;;;;;11.10;8.43;;;9.60;42.30;;;;;;5100972;28;20396;-69
2022/03/09 11:23:24;;;;;;;13.02;8.68;;;9.70;42.10;;;;;;5119964;27;20070;-70
2022/03/09 11:25:59;;;;;;;12.82;8.43;;;9.80;42.90;;;;;;5118900;27;20126;-70
2022/03/09 11:28:28;;;;;;;14.07;9.55;;;9.80;42.80;;;;;;5118086;27;20054;-70
2022/03/09 11:31:02;;;;;;;12.18;8.32;;;9.90;43.00;;;;;;5119338;27;20044;-69
2022/03/09 11:33:40;;;;;;;13.85;8.57;;;10.00;43.10;;;;;;5118832;27;20055;-69
2022/03/09 11:36:33;;;;;;;15.32;9.38;;;10.00;42.70;;;;;;5112028;27;20052;-70
2022/03/09 11:39:04;;;;;;;12.48;8.57;;;10.00;41.70;;;;;;5119566;27;20110;-70
2022/03/09 11:41:36;;;;;;;12.55;8.07;;;10.00;41.30;;;;;;5069335;28;20094;-70
2022/03/09 11:44:20;;;;;;;16.02;9.15;;;10.10;42.50;;;;;;5085631;28;20388;-69
2022/03/09 11:47:00;;;;;;;16.70;8.85;;;10.20;42.00;;;;;;5118120;27;20047;-70
2022/03/09 11:49:36;;;;;;;13.50;9.23;;;10.30;43.10;;;;;;5081968;28;20071;-70
2022/03/09 11:52:10;;;;;;;12.63;8.95;;;10.50;42.70;;;;;;5116552;27;20055;-69
2022/03/09 11:55:15;;;;;;;14.07;9.60;;;10.50;40.90;;;;;;5118861;27;20400;-69
2022/03/09 11:57:50;;;;;;;13.07;9.05;;;10.60;40.00;;;;;;5083890;28;20543;-69
2022/03/09 12:00:17;;;;;;;14.10;9.32;;;10.60;41.10;;;;;;5084455;28;20520;-69
2022/03/09 12:02:43;;;;;;;14.18;9.40;;;10.70;41.00;;;;;;5084836;28;20052;-69
2022/03/09 12:05:34;;;;;;;12.40;9.38;;;10.70;41.80;;;;;;5084920;28;20043;-69
2022/03/09 12:08:17;;;;;;;13.00;8.50;;;10.80;41.70;;;;;;5111066;27;20131;-69
2022/03/09 12:10:52;;;;;;;11.88;9.10;;;10.90;42.10;;;;;;5084367;28;20043;-69
2022/03/09 12:13:32;;;;;;;15.05;9.88;;;11.10;42.00;;;;;;5098883;28;20486;-69
2022/03/09 12:16:17;;;;;;;13.50;9.18;;;11.10;40.10;;;;;;5102058;28;20110;-69
2022/03/09 12:19:01;;;;;;;15.13;10.18;;;11.20;40.20;;;;;;5116883;27;20044;-69
2022/03/09 12:21:27;;;;;;;13.55;9.57;;;11.30;40.50;;;;;;5115337;27;20062;-70
2022/03/09 12:24:04;;;;;;;15.37;9.63;;;11.30;40.50;;;;;;5068956;28;20047;-70
2022/03/09 12:26:39;;;;;;;14.25;9.45;;;11.40;40.20;;;;;;5085830;28;20051;-70
2022/03/09 12:29:20;;;;;;;14.55;9.63;;;11.40;40.20;;;;;;5118527;27;20039;-69
2022/03/09 12:32:06;;;;;;;14.88;10.30;;;11.50;39.90;;;;;;5081601;28;20101;-69
2022/03/09 12:34:35;;;;;;;14.38;10.40;;;11.50;40.00;;;;;;5109733;27;20044;-69
2022/03/09 12:37:02;;;;;;;14.43;10.15;;;11.60;39.20;;;;;;5115958;28;20060;-69
2022/03/09 12:39:28;;;;;;;18.15;11.38;;;11.60;39.10;;;;;;5068432;28;20196;-70
2022/03/09 12:41:56;;;;;;;15.00;10.05;;;11.60;38.50;;;;;;5084296;28;20427;-70
2022/03/09 12:44:22;;;;;;;14.77;10.15;;;11.70;39.00;;;;;;5084172;28;20047;-69
2022/03/09 12:46:51;;;;;;;15.30;10.20;;;11.70;39.60;;;;;;5104689;28;20051;-69